sensor_id;sensor_type;location;lat;lon;timestamp;temperature;humidity
32753;DHT22;19121;52.428;10.816;2023-01-05T00:01:36;18.70;51.10
32753;DHT22;19121;52.428;10.816;2023-01-05T00:04:02;18.70;51.10
32753;DHT22;19121;52.428;10.816;2023-01-05T00:06:28;18.70;51.10
32753;DHT22;19121;52.428;10.816;2023-01-05T00:08:53;18.70;51.10
32753;DHT22;19121;52.428;10.816;2023-01-05T00:11:20;18.70;51.10
32753;DHT22;19121;52.428;10.816;2023-01-05T00:14:04;18.70;51.10
32753;DHT22;19121;52.428;10.816;2023-01-05T00:16:49;18.70;51.10
32753;DHT22;19121;52.428;10.816;2023-01-05T00:19:33;18.70;51.10
32753;DHT22;19121;52.428;10.816;2023-01-05T00:22:18;18.70;51.10
32753;DHT22;19121;52.428;10.816;2023-01-05T00:25:00;18.70;51.20
32753;DHT22;19121;52.428;10.816;2023-01-05T00:27:26;18.70;51.20
32753;DHT22;19121;52.428;10.816;2023-01-05T00:29:51;18.60;51.10
32753;DHT22;19121;52.428;10.816;2023-01-05T00:32:17;18.60;51.10
32753;DHT22;19121;52.428;10.816;2023-01-05T00:34:42;18.70;51.20
32753;DHT22;19121;52.428;10.816;2023-01-05T00:37:08;18.70;51.20
32753;DHT22;19121;52.428;10.816;2023-01-05T00:39:33;18.60;51.10
32753;DHT22;19121;52.428;10.816;2023-01-05T00:41:58;18.70;51.20
32753;DHT22;19121;52.428;10.816;2023-01-05T00:44:24;18.70;51.20
32753;DHT22;19121;52.428;10.816;2023-01-05T00:46:49;18.70;51.20
32753;DHT22;19121;52.428;10.816;2023-01-05T00:49:15;18.60;51.10
32753;DHT22;19121;52.428;10.816;2023-01-05T00:51:40;18.70;51.20
32753;DHT22;19121;52.428;10.816;2023-01-05T00:54:06;18.60;51.10
32753;DHT22;19121;52.428;10.816;2023-01-05T00:56:31;18.60;51.10
32753;DHT22;19121;52.428;10.816;2023-01-05T00:58:57;18.60;51.10
32753;DHT22;19121;52.428;10.816;2023-01-05T01:01:22;18.60;51.10
32753;DHT22;19121;52.428;10.816;2023-01-05T01:03:47;18.60;51.10
32753;DHT22;19121;52.428;10.816;2023-01-05T01:06:13;18.60;51.10
32753;DHT22;19121;52.428;10.816;2023-01-05T01:08:39;18.70;51.10
32753;DHT22;19121;52.428;10.816;2023-01-05T01:11:05;18.60;51.10
32753;DHT22;19121;52.428;10.816;2023-01-05T01:13:31;18.60;51.10
32753;DHT22;19121;52.428;10.816;2023-01-05T01:15:56;18.60;51.10
32753;DHT22;19121;52.428;10.816;2023-01-05T01:18:21;18.60;51.10
32753;DHT22;19121;52.428;10.816;2023-01-05T01:20:47;18.60;51.10
32753;DHT22;19121;52.428;10.816;2023-01-05T01:23:13;18.60;51.10
32753;DHT22;19121;52.428;10.816;2023-01-05T01:25:38;18.60;51.10
32753;DHT22;19121;52.428;10.816;2023-01-05T01:28:04;18.50;51.10
32753;DHT22;19121;52.428;10.816;2023-01-05T01:30:30;18.60;51.10
32753;DHT22;19121;52.428;10.816;2023-01-05T01:32:55;18.60;51.70
32753;DHT22;19121;52.428;10.816;2023-01-05T01:35:21;18.60;51.10
32753;DHT22;19121;52.428;10.816;2023-01-05T01:37:46;18.60;51.10
32753;DHT22;19121;52.428;10.816;2023-01-05T01:40:12;18.60;51.10
32753;DHT22;19121;52.428;10.816;2023-01-05T01:42:37;18.50;51.10
32753;DHT22;19121;52.428;10.816;2023-01-05T01:45:24;18.50;51.10
32753;DHT22;19121;52.428;10.816;2023-01-05T01:47:52;18.50;51.10
32753;DHT22;19121;52.428;10.816;2023-01-05T01:50:24;18.50;51.10
32753;DHT22;19121;52.428;10.816;2023-01-05T01:52:51;18.50;51.10
32753;DHT22;19121;52.428;10.816;2023-01-05T01:55:18;18.50;51.10
32753;DHT22;19121;52.428;10.816;2023-01-05T01:57:44;18.50;51.10
32753;DHT22;19121;52.428;10.816;2023-01-05T02:00:12;18.50;51.10
32753;DHT22;19121;52.428;10.816;2023-01-05T02:02:39;18.50;51.10
32753;DHT22;19121;52.428;10.816;2023-01-05T02:05:06;18.50;51.10
32753;DHT22;19121;52.428;10.816;2023-01-05T02:07:33;18.50;51.10
32753;DHT22;19121;52.428;10.816;2023-01-05T02:09:58;18.50;51.10
32753;DHT22;19121;52.428;10.816;2023-01-05T02:12:35;18.50;51.10
32753;DHT22;19121;52.428;10.816;2023-01-05T02:17:49;18.50;51.10
32753;DHT22;19121;52.428;10.816;2023-01-05T02:23:07;18.50;51.10
32753;DHT22;19121;52.428;10.816;2023-01-05T02:28:43;18.50;51.10
32753;DHT22;19121;52.428;10.816;2023-01-05T02:31:30;18.50;51.10
32753;DHT22;19121;52.428;10.816;2023-01-05T02:39:12;18.50;51.10
32753;DHT22;19121;52.428;10.816;2023-01-05T02:41:52;18.50;51.10
32753;DHT22;19121;52.428;10.816;2023-01-05T02:44:20;18.50;51.10
32753;DHT22;19121;52.428;10.816;2023-01-05T02:46:45;18.50;51.10
32753;DHT22;19121;52.428;10.816;2023-01-05T02:49:11;18.50;51.10
32753;DHT22;19121;52.428;10.816;2023-01-05T02:51:39;18.50;51.10
32753;DHT22;19121;52.428;10.816;2023-01-05T02:54:08;18.50;51.10
32753;DHT22;19121;52.428;10.816;2023-01-05T02:56:42;18.50;51.10
32753;DHT22;19121;52.428;10.816;2023-01-05T02:59:20;18.50;51.10
32753;DHT22;19121;52.428;10.816;2023-01-05T03:01:49;18.50;51.10
32753;DHT22;19121;52.428;10.816;2023-01-05T03:04:20;18.50;51.10
32753;DHT22;19121;52.428;10.816;2023-01-05T03:06:53;18.40;51.10
32753;DHT22;19121;52.428;10.816;2023-01-05T03:09:21;18.40;51.00
32753;DHT22;19121;52.428;10.816;2023-01-05T03:12:10;18.40;51.00
32753;DHT22;19121;52.428;10.816;2023-01-05T03:15:00;18.40;51.00
32753;DHT22;19121;52.428;10.816;2023-01-05T03:17:29;18.40;51.00
32753;DHT22;19121;52.428;10.816;2023-01-05T03:19:55;18.50;51.10
32753;DHT22;19121;52.428;10.816;2023-01-05T03:22:29;18.50;51.10
32753;DHT22;19121;52.428;10.816;2023-01-05T03:25:14;18.40;51.00
32753;DHT22;19121;52.428;10.816;2023-01-05T03:27:59;18.50;51.00
32753;DHT22;19121;52.428;10.816;2023-01-05T03:33:32;18.50;51.00
32753;DHT22;19121;52.428;10.816;2023-01-05T03:36:19;18.40;51.00
32753;DHT22;19121;52.428;10.816;2023-01-05T03:38:46;18.50;51.10
32753;DHT22;19121;52.428;10.816;2023-01-05T03:41:13;18.50;51.00
32753;DHT22;19121;52.428;10.816;2023-01-05T03:43:39;18.50;51.00
32753;DHT22;19121;52.428;10.816;2023-01-05T03:46:09;18.50;51.00
32753;DHT22;19121;52.428;10.816;2023-01-05T03:48:36;18.50;51.00
32753;DHT22;19121;52.428;10.816;2023-01-05T03:51:01;18.50;51.00
32753;DHT22;19121;52.428;10.816;2023-01-05T03:53:27;18.50;51.00
32753;DHT22;19121;52.428;10.816;2023-01-05T03:55:52;18.50;51.00
32753;DHT22;19121;52.428;10.816;2023-01-05T03:58:17;18.50;51.00
32753;DHT22;19121;52.428;10.816;2023-01-05T04:00:43;18.50;51.00
32753;DHT22;19121;52.428;10.816;2023-01-05T04:03:08;18.50;51.00
32753;DHT22;19121;52.428;10.816;2023-01-05T04:05:35;18.50;51.00
32753;DHT22;19121;52.428;10.816;2023-01-05T04:08:00;18.50;51.00
32753;DHT22;19121;52.428;10.816;2023-01-05T04:10:25;18.50;51.00
32753;DHT22;19121;52.428;10.816;2023-01-05T04:12:51;18.50;51.00
32753;DHT22;19121;52.428;10.816;2023-01-05T04:15:16;18.50;51.00
32753;DHT22;19121;52.428;10.816;2023-01-05T04:17:42;18.50;51.00
32753;DHT22;19121;52.428;10.816;2023-01-05T04:20:07;18.50;51.00
32753;DHT22;19121;52.428;10.816;2023-01-05T04:22:33;18.50;51.00
32753;DHT22;19121;52.428;10.816;2023-01-05T04:24:58;18.50;51.00
32753;DHT22;19121;52.428;10.816;2023-01-05T04:27:24;18.50;51.00
32753;DHT22;19121;52.428;10.816;2023-01-05T04:29:49;18.50;51.00
32753;DHT22;19121;52.428;10.816;2023-01-05T04:32:14;18.50;51.00
32753;DHT22;19121;52.428;10.816;2023-01-05T04:34:40;18.50;51.00
32753;DHT22;19121;52.428;10.816;2023-01-05T04:37:05;18.50;51.00
32753;DHT22;19121;52.428;10.816;2023-01-05T04:39:31;18.50;51.00
32753;DHT22;19121;52.428;10.816;2023-01-05T04:41:56;18.50;51.00
32753;DHT22;19121;52.428;10.816;2023-01-05T04:44:21;18.50;51.00
32753;DHT22;19121;52.428;10.816;2023-01-05T04:46:47;18.50;51.00
32753;DHT22;19121;52.428;10.816;2023-01-05T04:49:12;18.50;51.60
32753;DHT22;19121;52.428;10.816;2023-01-05T04:51:38;18.50;51.00
32753;DHT22;19121;52.428;10.816;2023-01-05T04:54:03;18.50;51.00
32753;DHT22;19121;52.428;10.816;2023-01-05T04:56:29;18.50;51.00
32753;DHT22;19121;52.428;10.816;2023-01-05T04:58:54;18.50;51.00
32753;DHT22;19121;52.428;10.816;2023-01-05T05:01:19;18.50;51.00
32753;DHT22;19121;52.428;10.816;2023-01-05T05:03:45;18.50;51.00
32753;DHT22;19121;52.428;10.816;2023-01-05T05:06:10;18.50;51.00
32753;DHT22;19121;52.428;10.816;2023-01-05T05:08:36;18.50;51.00
32753;DHT22;19121;52.428;10.816;2023-01-05T05:11:01;18.50;51.00
32753;DHT22;19121;52.428;10.816;2023-01-05T05:13:27;18.50;51.00
32753;DHT22;19121;52.428;10.816;2023-01-05T05:15:52;18.50;51.00
32753;DHT22;19121;52.428;10.816;2023-01-05T05:18:17;18.50;51.00
32753;DHT22;19121;52.428;10.816;2023-01-05T05:20:43;18.50;51.00
32753;DHT22;19121;52.428;10.816;2023-01-05T05:23:12;18.60;51.00
32753;DHT22;19121;52.428;10.816;2023-01-05T05:25:37;18.50;51.00
32753;DHT22;19121;52.428;10.816;2023-01-05T05:28:03;18.60;51.00
32753;DHT22;19121;52.428;10.816;2023-01-05T05:30:28;18.60;51.00
32753;DHT22;19121;52.428;10.816;2023-01-05T05:32:53;18.50;51.00
32753;DHT22;19121;52.428;10.816;2023-01-05T05:35:19;18.60;51.00
32753;DHT22;19121;52.428;10.816;2023-01-05T05:37:44;18.50;51.60
32753;DHT22;19121;52.428;10.816;2023-01-05T05:40:10;18.60;51.10
32753;DHT22;19121;52.428;10.816;2023-01-05T05:42:36;18.50;51.00
32753;DHT22;19121;52.428;10.816;2023-01-05T05:45:01;18.50;51.00
32753;DHT22;19121;52.428;10.816;2023-01-05T05:47:27;18.60;51.00
32753;DHT22;19121;52.428;10.816;2023-01-05T05:49:52;18.60;51.00
32753;DHT22;19121;52.428;10.816;2023-01-05T05:52:18;18.60;51.00
32753;DHT22;19121;52.428;10.816;2023-01-05T05:54:43;18.50;51.00
32753;DHT22;19121;52.428;10.816;2023-01-05T05:57:08;18.60;51.00
32753;DHT22;19121;52.428;10.816;2023-01-05T05:59:34;18.60;51.00
32753;DHT22;19121;52.428;10.816;2023-01-05T06:01:59;18.60;51.00
32753;DHT22;19121;52.428;10.816;2023-01-05T06:04:25;18.60;51.00
32753;DHT22;19121;52.428;10.816;2023-01-05T06:06:50;18.60;51.00
32753;DHT22;19121;52.428;10.816;2023-01-05T06:09:15;18.60;51.00
32753;DHT22;19121;52.428;10.816;2023-01-05T06:11:41;18.60;51.00
32753;DHT22;19121;52.428;10.816;2023-01-05T06:14:06;18.60;51.00
32753;DHT22;19121;52.428;10.816;2023-01-05T06:16:32;18.60;51.00
32753;DHT22;19121;52.428;10.816;2023-01-05T06:18:58;18.60;51.00
32753;DHT22;19121;52.428;10.816;2023-01-05T06:21:23;18.60;51.00
32753;DHT22;19121;52.428;10.816;2023-01-05T06:23:48;18.60;51.00
32753;DHT22;19121;52.428;10.816;2023-01-05T06:26:14;18.60;51.00
32753;DHT22;19121;52.428;10.816;2023-01-05T06:28:39;18.60;51.00
32753;DHT22;19121;52.428;10.816;2023-01-05T06:31:05;18.60;51.00
32753;DHT22;19121;52.428;10.816;2023-01-05T06:33:30;18.60;51.00
32753;DHT22;19121;52.428;10.816;2023-01-05T06:35:55;18.60;51.00
32753;DHT22;19121;52.428;10.816;2023-01-05T06:38:23;18.60;51.00
32753;DHT22;19121;52.428;10.816;2023-01-05T06:40:48;18.60;51.00
32753;DHT22;19121;52.428;10.816;2023-01-05T06:43:14;18.60;51.00
32753;DHT22;19121;52.428;10.816;2023-01-05T06:45:39;18.60;51.00
32753;DHT22;19121;52.428;10.816;2023-01-05T06:48:05;18.60;51.00
32753;DHT22;19121;52.428;10.816;2023-01-05T06:50:30;18.60;51.10
32753;DHT22;19121;52.428;10.816;2023-01-05T06:52:56;18.60;51.30
32753;DHT22;19121;52.428;10.816;2023-01-05T06:55:22;18.60;51.30
32753;DHT22;19121;52.428;10.816;2023-01-05T06:57:47;18.60;51.40
32753;DHT22;19121;52.428;10.816;2023-01-05T07:00:13;18.70;51.20
32753;DHT22;19121;52.428;10.816;2023-01-05T07:02:38;18.70;51.40
32753;DHT22;19121;52.428;10.816;2023-01-05T07:05:04;18.70;51.40
32753;DHT22;19121;52.428;10.816;2023-01-05T07:07:30;18.70;51.50
32753;DHT22;19121;52.428;10.816;2023-01-05T07:09:55;18.70;52.50
32753;DHT22;19121;52.428;10.816;2023-01-05T07:12:20;18.80;53.40
32753;DHT22;19121;52.428;10.816;2023-01-05T07:14:46;18.80;53.40
32753;DHT22;19121;52.428;10.816;2023-01-05T07:17:11;18.80;53.20
32753;DHT22;19121;52.428;10.816;2023-01-05T07:19:37;18.90;53.90
32753;DHT22;19121;52.428;10.816;2023-01-05T07:22:03;18.90;53.40
32753;DHT22;19121;52.428;10.816;2023-01-05T07:24:28;18.90;53.80
32753;DHT22;19121;52.428;10.816;2023-01-05T07:26:54;18.90;53.60
32753;DHT22;19121;52.428;10.816;2023-01-05T07:29:19;18.90;53.60
32753;DHT22;19121;52.428;10.816;2023-01-05T07:31:44;18.90;53.10
32753;DHT22;19121;52.428;10.816;2023-01-05T07:34:11;18.90;52.70
32753;DHT22;19121;52.428;10.816;2023-01-05T07:36:37;18.90;52.60
32753;DHT22;19121;52.428;10.816;2023-01-05T07:39:02;18.90;52.50
32753;DHT22;19121;52.428;10.816;2023-01-05T07:41:28;18.90;52.20
32753;DHT22;19121;52.428;10.816;2023-01-05T07:43:53;19.00;51.80
32753;DHT22;19121;52.428;10.816;2023-01-05T07:46:19;19.00;51.80
32753;DHT22;19121;52.428;10.816;2023-01-05T07:48:44;19.00;51.50
32753;DHT22;19121;52.428;10.816;2023-01-05T07:51:10;19.00;51.30
32753;DHT22;19121;52.428;10.816;2023-01-05T07:53:35;19.00;51.30
32753;DHT22;19121;52.428;10.816;2023-01-05T07:56:02;19.00;51.30
32753;DHT22;19121;52.428;10.816;2023-01-05T07:58:28;19.10;51.40
32753;DHT22;19121;52.428;10.816;2023-01-05T08:00:54;19.10;51.30
32753;DHT22;19121;52.428;10.816;2023-01-05T08:03:19;19.10;51.30
32753;DHT22;19121;52.428;10.816;2023-01-05T08:05:45;19.10;51.30
32753;DHT22;19121;52.428;10.816;2023-01-05T08:08:11;19.10;51.40
32753;DHT22;19121;52.428;10.816;2023-01-05T08:10:37;19.10;51.50
32753;DHT22;19121;52.428;10.816;2023-01-05T08:13:04;19.10;51.40
32753;DHT22;19121;52.428;10.816;2023-01-05T08:15:49;19.20;51.40
32753;DHT22;19121;52.428;10.816;2023-01-05T08:18:15;19.20;51.50
32753;DHT22;19121;52.428;10.816;2023-01-05T08:20:40;19.20;51.70
32753;DHT22;19121;52.428;10.816;2023-01-05T08:23:05;19.20;51.60
32753;DHT22;19121;52.428;10.816;2023-01-05T08:25:31;19.20;51.50
32753;DHT22;19121;52.428;10.816;2023-01-05T08:27:57;19.20;51.60
32753;DHT22;19121;52.428;10.816;2023-01-05T08:30:23;19.20;51.50
32753;DHT22;19121;52.428;10.816;2023-01-05T08:32:48;19.20;51.40
32753;DHT22;19121;52.428;10.816;2023-01-05T08:35:14;19.20;51.40
32753;DHT22;19121;52.428;10.816;2023-01-05T08:37:39;19.20;51.40
32753;DHT22;19121;52.428;10.816;2023-01-05T08:40:05;19.20;51.30
32753;DHT22;19121;52.428;10.816;2023-01-05T08:42:30;19.20;51.30
32753;DHT22;19121;52.428;10.816;2023-01-05T08:44:56;19.30;51.40
32753;DHT22;19121;52.428;10.816;2023-01-05T08:47:21;19.30;51.40
32753;DHT22;19121;52.428;10.816;2023-01-05T08:49:47;19.30;51.40
32753;DHT22;19121;52.428;10.816;2023-01-05T08:52:14;19.30;51.50
32753;DHT22;19121;52.428;10.816;2023-01-05T08:54:39;19.30;51.50
32753;DHT22;19121;52.428;10.816;2023-01-05T08:57:04;19.30;51.50
32753;DHT22;19121;52.428;10.816;2023-01-05T08:59:30;19.30;51.70
32753;DHT22;19121;52.428;10.816;2023-01-05T09:01:55;19.40;51.50
32753;DHT22;19121;52.428;10.816;2023-01-05T09:04:21;19.40;51.40
32753;DHT22;19121;52.428;10.816;2023-01-05T09:06:46;19.40;51.30
32753;DHT22;19121;52.428;10.816;2023-01-05T09:09:12;19.40;51.30
32753;DHT22;19121;52.428;10.816;2023-01-05T09:11:38;19.40;51.20
32753;DHT22;19121;52.428;10.816;2023-01-05T09:14:03;19.40;51.30
32753;DHT22;19121;52.428;10.816;2023-01-05T09:16:31;19.40;51.30
32753;DHT22;19121;52.428;10.816;2023-01-05T09:18:57;19.40;51.30
32753;DHT22;19121;52.428;10.816;2023-01-05T09:21:23;19.40;51.30
32753;DHT22;19121;52.428;10.816;2023-01-05T09:23:49;19.40;51.30
32753;DHT22;19121;52.428;10.816;2023-01-05T09:26:14;19.50;51.30
32753;DHT22;19121;52.428;10.816;2023-01-05T09:28:40;19.40;51.40
32753;DHT22;19121;52.428;10.816;2023-01-05T09:31:07;19.40;51.30
32753;DHT22;19121;52.428;10.816;2023-01-05T09:33:33;19.40;51.40
32753;DHT22;19121;52.428;10.816;2023-01-05T09:35:58;19.40;51.40
32753;DHT22;19121;52.428;10.816;2023-01-05T09:38:23;19.50;51.40
32753;DHT22;19121;52.428;10.816;2023-01-05T09:40:50;19.50;51.40
32753;DHT22;19121;52.428;10.816;2023-01-05T09:43:37;19.50;51.30
32753;DHT22;19121;52.428;10.816;2023-01-05T09:46:03;19.50;51.40
32753;DHT22;19121;52.428;10.816;2023-01-05T09:48:29;19.50;51.30
32753;DHT22;19121;52.428;10.816;2023-01-05T09:50:57;19.50;51.30
32753;DHT22;19121;52.428;10.816;2023-01-05T09:53:25;19.50;51.20
32753;DHT22;19121;52.428;10.816;2023-01-05T09:55:52;19.50;51.20
32753;DHT22;19121;52.428;10.816;2023-01-05T09:58:19;19.50;51.30
32753;DHT22;19121;52.428;10.816;2023-01-05T10:01:03;19.60;51.30
32753;DHT22;19121;52.428;10.816;2023-01-05T10:03:30;19.50;51.30
32753;DHT22;19121;52.428;10.816;2023-01-05T10:05:55;19.60;51.50
32753;DHT22;19121;52.428;10.816;2023-01-05T10:08:29;19.60;51.50
32753;DHT22;19121;52.428;10.816;2023-01-05T10:11:01;19.60;52.10
32753;DHT22;19121;52.428;10.816;2023-01-05T10:13:53;19.60;51.50
32753;DHT22;19121;52.428;10.816;2023-01-05T10:16:19;19.60;51.60
32753;DHT22;19121;52.428;10.816;2023-01-05T10:18:45;19.60;51.50
32753;DHT22;19121;52.428;10.816;2023-01-05T10:21:13;19.70;51.50
32753;DHT22;19121;52.428;10.816;2023-01-05T10:29:14;19.70;51.50
32753;DHT22;19121;52.428;10.816;2023-01-05T10:31:44;19.70;51.50
32753;DHT22;19121;52.428;10.816;2023-01-05T10:37:12;19.70;51.50
32753;DHT22;19121;52.428;10.816;2023-01-05T10:42:21;19.70;51.50
32753;DHT22;19121;52.428;10.816;2023-01-05T10:47:18;19.70;51.40
32753;DHT22;19121;52.428;10.816;2023-01-05T10:49:45;19.80;51.40
32753;DHT22;19121;52.428;10.816;2023-01-05T10:52:12;19.80;51.40
32753;DHT22;19121;52.428;10.816;2023-01-05T10:54:39;19.80;51.40
32753;DHT22;19121;52.428;10.816;2023-01-05T10:59:56;19.80;51.40
32753;DHT22;19121;52.428;10.816;2023-01-05T11:02:22;19.80;51.40
32753;DHT22;19121;52.428;10.816;2023-01-05T11:04:47;19.80;51.40
32753;DHT22;19121;52.428;10.816;2023-01-05T11:07:14;19.90;51.50
32753;DHT22;19121;52.428;10.816;2023-01-05T11:09:40;19.90;51.80
32753;DHT22;19121;52.428;10.816;2023-01-05T11:12:12;19.90;51.90
32753;DHT22;19121;52.428;10.816;2023-01-05T11:14:41;19.90;51.60
32753;DHT22;19121;52.428;10.816;2023-01-05T11:17:10;19.90;51.50
32753;DHT22;19121;52.428;10.816;2023-01-05T11:19:40;19.90;51.40
32753;DHT22;19121;52.428;10.816;2023-01-05T11:24:50;20.00;51.40
32753;DHT22;19121;52.428;10.816;2023-01-05T11:29:44;19.90;51.30
32753;DHT22;19121;52.428;10.816;2023-01-05T11:32:09;19.90;51.30
32753;DHT22;19121;52.428;10.816;2023-01-05T11:39:32;19.90;51.30
32753;DHT22;19121;52.428;10.816;2023-01-05T11:42:16;20.00;51.30
32753;DHT22;19121;52.428;10.816;2023-01-05T11:44:43;20.00;51.30
32753;DHT22;19121;52.428;10.816;2023-01-05T11:47:16;19.90;51.20
32753;DHT22;19121;52.428;10.816;2023-01-05T11:49:42;19.90;51.20
32753;DHT22;19121;52.428;10.816;2023-01-05T11:52:22;19.90;51.30
32753;DHT22;19121;52.428;10.816;2023-01-05T11:54:49;20.00;51.30
32753;DHT22;19121;52.428;10.816;2023-01-05T11:57:15;20.00;51.30
32753;DHT22;19121;52.428;10.816;2023-01-05T11:59:42;20.00;51.30
32753;DHT22;19121;52.428;10.816;2023-01-05T12:02:17;20.00;51.30
32753;DHT22;19121;52.428;10.816;2023-01-05T12:07:15;20.00;51.40
32753;DHT22;19121;52.428;10.816;2023-01-05T12:09:54;20.00;51.30
32753;DHT22;19121;52.428;10.816;2023-01-05T12:12:25;20.00;51.50
32753;DHT22;19121;52.428;10.816;2023-01-05T12:20:06;20.00;51.90
32753;DHT22;19121;52.428;10.816;2023-01-05T12:25:02;20.00;51.20
32753;DHT22;19121;52.428;10.816;2023-01-05T12:27:41;20.00;51.20
32753;DHT22;19121;52.428;10.816;2023-01-05T12:30:15;20.00;51.20
32753;DHT22;19121;52.428;10.816;2023-01-05T12:40:52;20.00;51.20
32753;DHT22;19121;52.428;10.816;2023-01-05T12:48:41;19.90;51.70
32753;DHT22;19121;52.428;10.816;2023-01-05T12:51:14;19.90;51.70
32753;DHT22;19121;52.428;10.816;2023-01-05T12:53:48;19.90;51.80
32753;DHT22;19121;52.428;10.816;2023-01-05T12:56:19;19.90;51.90
32753;DHT22;19121;52.428;10.816;2023-01-05T13:01:30;19.90;52.00
32753;DHT22;19121;52.428;10.816;2023-01-05T13:04:06;19.90;52.00
32753;DHT22;19121;52.428;10.816;2023-01-05T13:06:38;19.80;52.00
32753;DHT22;19121;52.428;10.816;2023-01-05T13:09:11;19.80;52.00
32753;DHT22;19121;52.428;10.816;2023-01-05T13:11:48;19.80;52.10
32753;DHT22;19121;52.428;10.816;2023-01-05T13:14:16;19.80;52.20
32753;DHT22;19121;52.428;10.816;2023-01-05T13:16:44;19.80;52.20
32753;DHT22;19121;52.428;10.816;2023-01-05T13:19:14;19.80;52.20
32753;DHT22;19121;52.428;10.816;2023-01-05T13:21:42;19.80;52.20
32753;DHT22;19121;52.428;10.816;2023-01-05T13:24:10;19.80;52.20
32753;DHT22;19121;52.428;10.816;2023-01-05T13:26:37;19.80;52.30
32753;DHT22;19121;52.428;10.816;2023-01-05T13:29:02;19.80;52.30
32753;DHT22;19121;52.428;10.816;2023-01-05T13:37:06;19.80;52.50
32753;DHT22;19121;52.428;10.816;2023-01-05T13:44:48;19.80;52.60
32753;DHT22;19121;52.428;10.816;2023-01-05T13:47:19;19.80;52.70
32753;DHT22;19121;52.428;10.816;2023-01-05T13:54:55;19.80;52.90
32753;DHT22;19121;52.428;10.816;2023-01-05T13:57:34;19.80;52.90
32753;DHT22;19121;52.428;10.816;2023-01-05T14:00:01;19.80;52.90
32753;DHT22;19121;52.428;10.816;2023-01-05T14:02:33;19.80;53.10
32753;DHT22;19121;52.428;10.816;2023-01-05T14:05:00;19.80;53.30
32753;DHT22;19121;52.428;10.816;2023-01-05T14:07:26;19.80;53.30
32753;DHT22;19121;52.428;10.816;2023-01-05T14:09:53;19.80;53.80
32753;DHT22;19121;52.428;10.816;2023-01-05T14:14:57;19.80;53.70
32753;DHT22;19121;52.428;10.816;2023-01-05T14:22:52;19.80;53.30
32753;DHT22;19121;52.428;10.816;2023-01-05T14:28:15;19.80;53.30
32753;DHT22;19121;52.428;10.816;2023-01-05T14:30:41;19.80;53.30
32753;DHT22;19121;52.428;10.816;2023-01-05T14:33:07;19.80;55.40
32753;DHT22;19121;52.428;10.816;2023-01-05T14:35:33;19.80;56.10
32753;DHT22;19121;52.428;10.816;2023-01-05T14:38:01;19.80;56.00
32753;DHT22;19121;52.428;10.816;2023-01-05T14:40:29;19.80;55.90
32753;DHT22;19121;52.428;10.816;2023-01-05T14:42:55;19.80;56.00
32753;DHT22;19121;52.428;10.816;2023-01-05T14:45:22;19.80;55.90
32753;DHT22;19121;52.428;10.816;2023-01-05T14:47:50;19.80;56.00
32753;DHT22;19121;52.428;10.816;2023-01-05T14:50:24;19.80;56.20
32753;DHT22;19121;52.428;10.816;2023-01-05T14:53:00;19.90;56.00
32753;DHT22;19121;52.428;10.816;2023-01-05T14:55:27;19.90;55.90
32753;DHT22;19121;52.428;10.816;2023-01-05T14:57:55;19.90;55.50
32753;DHT22;19121;52.428;10.816;2023-01-05T15:00:22;19.80;54.70
32753;DHT22;19121;52.428;10.816;2023-01-05T15:02:53;19.90;54.90
32753;DHT22;19121;52.428;10.816;2023-01-05T15:05:19;19.80;54.90
32753;DHT22;19121;52.428;10.816;2023-01-05T15:07:58;19.80;54.90
32753;DHT22;19121;52.428;10.816;2023-01-05T15:10:36;19.80;54.30
32753;DHT22;19121;52.428;10.816;2023-01-05T15:15:52;19.70;53.80
32753;DHT22;19121;52.428;10.816;2023-01-05T15:20:49;19.40;54.10
32753;DHT22;19121;52.428;10.816;2023-01-05T15:23:29;19.40;54.50
32753;DHT22;19121;52.428;10.816;2023-01-05T15:25:59;19.30;54.50
32753;DHT22;19121;52.428;10.816;2023-01-05T15:33:40;19.10;54.80
32753;DHT22;19121;52.428;10.816;2023-01-05T15:36:11;19.10;54.90
32753;DHT22;19121;52.428;10.816;2023-01-05T15:38:43;19.10;54.60
32753;DHT22;19121;52.428;10.816;2023-01-05T15:41:10;19.00;54.70
32753;DHT22;19121;52.428;10.816;2023-01-05T15:43:37;19.00;55.10
32753;DHT22;19121;52.428;10.816;2023-01-05T15:46:03;19.00;55.00
32753;DHT22;19121;52.428;10.816;2023-01-05T15:48:36;19.00;54.60
32753;DHT22;19121;52.428;10.816;2023-01-05T15:51:04;19.00;54.90
32753;DHT22;19121;52.428;10.816;2023-01-05T15:53:31;18.90;54.80
32753;DHT22;19121;52.428;10.816;2023-01-05T15:55:57;18.90;55.70
32753;DHT22;19121;52.428;10.816;2023-01-05T15:58:24;19.00;55.50
32753;DHT22;19121;52.428;10.816;2023-01-05T16:03:35;19.20;54.90
32753;DHT22;19121;52.428;10.816;2023-01-05T16:06:02;19.30;54.70
32753;DHT22;19121;52.428;10.816;2023-01-05T16:08:29;19.30;54.50
32753;DHT22;19121;52.428;10.816;2023-01-05T16:10:56;19.40;54.40
32753;DHT22;19121;52.428;10.816;2023-01-05T16:13:44;19.40;54.20
32753;DHT22;19121;52.428;10.816;2023-01-05T16:16:16;19.50;54.10
32753;DHT22;19121;52.428;10.816;2023-01-05T16:18:45;19.50;53.90
32753;DHT22;19121;52.428;10.816;2023-01-05T16:23:58;19.50;53.70
32753;DHT22;19121;52.428;10.816;2023-01-05T16:26:24;19.50;53.70
32753;DHT22;19121;52.428;10.816;2023-01-05T16:28:50;19.50;53.60
32753;DHT22;19121;52.428;10.816;2023-01-05T16:31:28;19.50;53.60
32753;DHT22;19121;52.428;10.816;2023-01-05T16:34:15;19.50;53.50
32753;DHT22;19121;52.428;10.816;2023-01-05T16:36:56;19.50;53.50
32753;DHT22;19121;52.428;10.816;2023-01-05T16:39:22;19.50;53.40
32753;DHT22;19121;52.428;10.816;2023-01-05T16:41:48;19.50;53.40
32753;DHT22;19121;52.428;10.816;2023-01-05T16:44:32;19.50;53.30
32753;DHT22;19121;52.428;10.816;2023-01-05T16:47:07;19.50;53.30
32753;DHT22;19121;52.428;10.816;2023-01-05T16:49:34;19.50;53.20
32753;DHT22;19121;52.428;10.816;2023-01-05T16:52:00;19.50;53.20
32753;DHT22;19121;52.428;10.816;2023-01-05T16:54:27;19.50;53.20
32753;DHT22;19121;52.428;10.816;2023-01-05T16:57:01;19.50;53.20
32753;DHT22;19121;52.428;10.816;2023-01-05T16:59:34;19.50;53.20
32753;DHT22;19121;52.428;10.816;2023-01-05T17:02:25;19.60;53.20
32753;DHT22;19121;52.428;10.816;2023-01-05T17:04:49;19.50;53.10
32753;DHT22;19121;52.428;10.816;2023-01-05T17:07:15;19.50;53.10
32753;DHT22;19121;52.428;10.816;2023-01-05T17:09:40;19.50;53.10
32753;DHT22;19121;52.428;10.816;2023-01-05T17:12:07;19.50;53.10
32753;DHT22;19121;52.428;10.816;2023-01-05T17:14:33;19.50;53.10